Time;durP1;ratioP1;P1;durP2;ratioP2;P2;SDS_P1;SDS_P2;PMS_P1;PMS_P2;Temp;Humidity;BMP_temperature;BMP_pressure;BME280_temperature;BME280_humidity;BME280_pressure;Samples;Min_cycle;Max_cycle;Signal;HPM_P1;HPM_P2
2022/11/06 00:02:22;;;;;;;;;;;;;;;;;;7365795;19;1662;-61
2022/11/06 00:04:50;;;;;;;;;;;;;;;;;;7365364;19;907;-61
2022/11/06 00:07:16;;;;;;;;;;;;;;;;;;7366236;19;818;-61
2022/11/06 00:09:44;;;;;;;;;;;;;;;;;;7363963;19;1321;-59
2022/11/06 00:12:12;;;;;;;;;;;;;;;;;;7365214;19;846;-61
2022/11/06 00:14:40;;;;;;;;;;;;;;;;;;7362538;19;1845;-61
2022/11/06 00:17:08;;;;;;;;;;;;;;;;;;7367468;19;1864;-61
2022/11/06 00:19:37;;;;;;;;;;;;;;;;;;7362417;19;1286;-61
2022/11/06 00:22:05;;;;;;;;;;;;;;;;;;7365416;19;804;-61
2022/11/06 00:24:33;;;;;;;;;;;;;;;;;;7366422;19;858;-58
2022/11/06 00:27:01;;;;;;;;;;;;;;;;;;7365113;19;879;-58
2022/11/06 00:29:30;;;;;;;;;;;;;;;;;;7367703;19;1777;-57
2022/11/06 00:31:58;;;;;;;;;;;;;;;;;;7365665;19;866;-57
2022/11/06 00:34:26;;;;;;;;;;;;;;;;;;7364382;19;1842;-60
2022/11/06 00:36:54;;;;;;;;;;;;;;;;;;7365494;19;870;-61
2022/11/06 00:39:22;;;;;;;;;;;;;;;;;;7367144;19;1769;-59
2022/11/06 00:41:50;;;;;;;;;;;;;;;;;;7364861;19;775;-59
2022/11/06 00:44:18;;;;;;;;;;;;;;;;;;7364278;19;728;-59
2022/11/06 00:46:46;;;;;;;;;;;;;;;;;;7367672;19;1798;-58
2022/11/06 00:49:15;;;;;;;;;;;;;;;;;;7363174;19;1332;-61
2022/11/06 00:51:43;;;;;;;;;;;;;;;;;;7364873;19;870;-60
2022/11/06 00:54:11;;;;;;;;;;;;;;;;;;7363528;19;1837;-61
2022/11/06 00:56:39;;;;;;;;;;;;;;;;;;7365048;19;798;-58
2022/11/06 00:59:07;;;;;;;;;;;;;;;;;;7369062;19;1809;-58
2022/11/06 01:01:35;;;;;;;;;;;;;;;;;;7373838;19;1907;-59
2022/11/06 01:04:03;;;;;;;;;;;;;;;;;;7373587;19;1669;-59
2022/11/06 01:06:32;;;;;;;;;;;;;;;;;;7374209;19;1613;-61
2022/11/06 01:09:00;;;;;;;;;;;;;;;;;;7369907;19;797;-60
2022/11/06 01:11:28;;;;;;;;;;;;;;;;;;7370390;19;811;-59
2022/11/06 01:13:57;;;;;;;;;;;;;;;;;;7367998;19;1857;-60
2022/11/06 01:16:25;;;;;;;;;;;;;;;;;;7369830;19;1278;-54
2022/11/06 01:18:53;;;;;;;;;;;;;;;;;;7374578;19;1820;-58
2022/11/06 01:21:21;;;;;;;;;;;;;;;;;;7369455;19;1333;-54
2022/11/06 01:23:49;;;;;;;;;;;;;;;;;;7373675;19;1610;-58
2022/11/06 01:26:18;;;;;;;;;;;;;;;;;;7372876;19;866;-58
2022/11/06 01:28:46;;;;;;;;;;;;;;;;;;7373633;19;883;-58
2022/11/06 01:31:15;;;;;;;;;;;;;;;;;;7369731;19;1364;-61
2022/11/06 01:33:44;;;;;;;;;;;;;;;;;;7374079;19;1850;-61
2022/11/06 01:36:12;;;;;;;;;;;;;;;;;;7373708;19;1618;-60
2022/11/06 01:38:40;;;;;;;;;;;;;;;;;;7369009;19;808;-60
2022/11/06 01:41:08;;;;;;;;;;;;;;;;;;7371075;19;1647;-56
2022/11/06 01:43:36;;;;;;;;;;;;;;;;;;7370373;19;811;-56
2022/11/06 01:46:04;;;;;;;;;;;;;;;;;;7369586;19;822;-60
2022/11/06 01:48:32;;;;;;;;;;;;;;;;;;7368025;19;882;-57
2022/11/06 01:51:01;;;;;;;;;;;;;;;;;;7368142;19;1317;-59
2022/11/06 01:53:29;;;;;;;;;;;;;;;;;;7369298;19;785;-59
2022/11/06 01:55:57;;;;;;;;;;;;;;;;;;7367361;19;1841;-58
2022/11/06 01:58:25;;;;;;;;;;;;;;;;;;7368963;19;806;-63
2022/11/06 02:00:53;;;;;;;;;;;;;;;;;;7366841;19;1325;-61
2022/11/06 02:03:21;;;;;;;;;;;;;;;;;;7371652;19;1757;-59
2022/11/06 02:05:49;;;;;;;;;;;;;;;;;;7369536;19;802;-59
2022/11/06 02:08:18;;;;;;;;;;;;;;;;;;7367270;19;914;-61
2022/11/06 02:10:46;;;;;;;;;;;;;;;;;;7367749;19;1270;-58
2022/11/06 02:13:14;;;;;;;;;;;;;;;;;;7368317;19;899;-55
2022/11/06 02:15:42;;;;;;;;;;;;;;;;;;7366543;19;1858;-53
2022/11/06 02:18:10;;;;;;;;;;;;;;;;;;7368072;19;860;-56
2022/11/06 02:20:38;;;;;;;;;;;;;;;;;;7366412;19;1364;-59
2022/11/06 02:23:07;;;;;;;;;;;;;;;;;;7368508;19;855;-58
2022/11/06 02:25:35;;;;;;;;;;;;;;;;;;7368673;19;802;-59
2022/11/06 02:28:03;;;;;;;;;;;;;;;;;;7368243;19;1842;-56
2022/11/06 02:30:31;;;;;;;;;;;;;;;;;;7364861;19;1290;-58
2022/11/06 02:33:00;;;;;;;;;;;;;;;;;;7368233;19;851;-57
2022/11/06 02:35:28;;;;;;;;;;;;;;;;;;7366367;19;1853;-57
2022/11/06 02:37:56;;;;;;;;;;;;;;;;;;7367398;19;849;-60
2022/11/06 02:40:24;;;;;;;;;;;;;;;;;;7367059;19;1325;-59
2022/11/06 02:42:52;;;;;;;;;;;;;;;;;;7368512;19;1065;-57
2022/11/06 02:45:20;;;;;;;;;;;;;;;;;;7367893;19;795;-60
2022/11/06 02:47:48;;;;;;;;;;;;;;;;;;7367025;19;732;-57
2022/11/06 02:50:17;;;;;;;;;;;;;;;;;;7366017;19;1338;-54
2022/11/06 02:52:45;;;;;;;;;;;;;;;;;;7368366;19;763;-59
2022/11/06 02:55:13;;;;;;;;;;;;;;;;;;7364827;19;1853;-59
2022/11/06 02:57:41;;;;;;;;;;;;;;;;;;7366694;19;806;-59
2022/11/06 03:00:09;;;;;;;;;;;;;;;;;;7366495;19;1302;-58
2022/11/06 03:02:39;;;;;;;;;;;;;;;;;;7367591;19;840;-54
2022/11/06 03:05:07;;;;;;;;;;;;;;;;;;7367748;19;744;-59
2022/11/06 03:07:35;;;;;;;;;;;;;;;;;;7366555;19;863;-58
2022/11/06 03:10:03;;;;;;;;;;;;;;;;;;7365827;19;1317;-55
2022/11/06 03:12:31;;;;;;;;;;;;;;;;;;7366532;19;863;-58
2022/11/06 03:15:00;;;;;;;;;;;;;;;;;;7365760;19;1865;-60
2022/11/06 03:17:28;;;;;;;;;;;;;;;;;;7365274;19;881;-58
2022/11/06 03:19:56;;;;;;;;;;;;;;;;;;7365334;19;1285;-59
2022/11/06 03:22:24;;;;;;;;;;;;;;;;;;7365748;19;866;-57
2022/11/06 03:24:52;;;;;;;;;;;;;;;;;;7366754;19;756;-60
2022/11/06 03:27:20;;;;;;;;;;;;;;;;;;7366506;19;716;-58
2022/11/06 03:29:49;;;;;;;;;;;;;;;;;;7369569;19;1804;-60
2022/11/06 03:32:17;;;;;;;;;;;;;;;;;;7367371;19;802;-57
2022/11/06 03:34:45;;;;;;;;;;;;;;;;;;7365457;19;1854;-60
2022/11/06 03:37:13;;;;;;;;;;;;;;;;;;7366709;19;1471;-58
2022/11/06 03:39:41;;;;;;;;;;;;;;;;;;7364684;19;1750;-54
2022/11/06 03:42:09;;;;;;;;;;;;;;;;;;7366552;19;811;-55
2022/11/06 03:44:37;;;;;;;;;;;;;;;;;;7365781;19;846;-53
2022/11/06 03:47:06;;;;;;;;;;;;;;;;;;7365978;19;727;-57
2022/11/06 03:49:34;;;;;;;;;;;;;;;;;;7364124;19;1321;-60
2022/11/06 03:52:02;;;;;;;;;;;;;;;;;;7366208;19;791;-59
2022/11/06 03:54:30;;;;;;;;;;;;;;;;;;7365412;19;1845;-53
2022/11/06 03:56:58;;;;;;;;;;;;;;;;;;7364359;19;801;-60
2022/11/06 03:59:26;;;;;;;;;;;;;;;;;;7364555;19;1278;-58
2022/11/06 04:01:54;;;;;;;;;;;;;;;;;;7364612;19;803;-61
2022/11/06 04:04:22;;;;;;;;;;;;;;;;;;7364215;19;901;-58
2022/11/06 04:06:51;;;;;;;;;;;;;;;;;;7369777;19;1778;-60
2022/11/06 04:14:40;;;;;;;;;;;;;;;;;;7364724;19;1830;-59
2022/11/06 04:17:08;;;;;;;;;;;;;;;;;;7365263;19;921;-57
2022/11/06 04:19:36;;;;;;;;;;;;;;;;;;7364125;19;1286;-58
2022/11/06 04:22:04;;;;;;;;;;;;;;;;;;7365206;19;998;-59
2022/11/06 04:27:13;;;;;;;;;;;;;;;;;;7364232;19;846;-61
2022/11/06 04:29:41;;;;;;;;;;;;;;;;;;7363121;19;1322;-60
2022/11/06 04:32:09;;;;;;;;;;;;;;;;;;7365075;19;811;-60
2022/11/06 04:34:37;;;;;;;;;;;;;;;;;;7370886;19;1834;-59
2022/11/06 04:37:06;;;;;;;;;;;;;;;;;;7375514;19;1759;-61
2022/11/06 04:39:34;;;;;;;;;;;;;;;;;;7371288;19;1796;-60
2022/11/06 04:42:02;;;;;;;;;;;;;;;;;;7371767;19;874;-60
2022/11/06 04:44:30;;;;;;;;;;;;;;;;;;7371620;19;772;-60
2022/11/06 04:46:58;;;;;;;;;;;;;;;;;;7371328;19;899;-60
2022/11/06 04:49:26;;;;;;;;;;;;;;;;;;7370379;19;1286;-58
2022/11/06 04:51:54;;;;;;;;;;;;;;;;;;7371247;19;777;-57
2022/11/06 04:54:23;;;;;;;;;;;;;;;;;;7371043;19;806;-55
2022/11/06 04:56:51;;;;;;;;;;;;;;;;;;7371795;19;1841;-60
2022/11/06 04:59:19;;;;;;;;;;;;;;;;;;7370104;19;1250;-53
2022/11/06 05:01:47;;;;;;;;;;;;;;;;;;7369987;19;798;-57
2022/11/06 05:04:15;;;;;;;;;;;;;;;;;;7370754;19;764;-60
2022/11/06 05:06:43;;;;;;;;;;;;;;;;;;7370532;19;850;-59
2022/11/06 05:09:11;;;;;;;;;;;;;;;;;;7369009;19;1343;-56
2022/11/06 05:11:40;;;;;;;;;;;;;;;;;;7370296;19;879;-57
2022/11/06 05:14:08;;;;;;;;;;;;;;;;;;7370707;19;822;-60
2022/11/06 05:16:36;;;;;;;;;;;;;;;;;;7368477;19;1825;-58
2022/11/06 05:19:04;;;;;;;;;;;;;;;;;;7369081;19;1314;-61
2022/11/06 05:24:13;;;;;;;;;;;;;;;;;;7370161;19;784;-61
2022/11/06 05:26:41;;;;;;;;;;;;;;;;;;7371342;19;1855;-60
2022/11/06 05:29:09;;;;;;;;;;;;;;;;;;7368724;19;1825;-61
2022/11/06 05:31:37;;;;;;;;;;;;;;;;;;7369615;19;1011;-60
2022/11/06 05:34:05;;;;;;;;;;;;;;;;;;7373472;19;1778;-60
2022/11/06 05:36:33;;;;;;;;;;;;;;;;;;7368269;19;1853;-60
2022/11/06 05:39:02;;;;;;;;;;;;;;;;;;7369362;19;773;-60
2022/11/06 05:41:30;;;;;;;;;;;;;;;;;;7372378;19;782;-61
2022/11/06 05:43:58;;;;;;;;;;;;;;;;;;7371744;19;756;-57
2022/11/06 05:46:26;;;;;;;;;;;;;;;;;;7371757;19;846;-61
2022/11/06 05:48:54;;;;;;;;;;;;;;;;;;7370778;19;827;-60
2022/11/06 05:51:22;;;;;;;;;;;;;;;;;;7369547;19;1278;-58
2022/11/06 05:53:50;;;;;;;;;;;;;;;;;;7371319;19;838;-57
2022/11/06 05:56:19;;;;;;;;;;;;;;;;;;7368087;19;1842;-59
2022/11/06 05:58:47;;;;;;;;;;;;;;;;;;7368507;19;768;-55
2022/11/06 06:01:15;;;;;;;;;;;;;;;;;;7366818;19;1325;-60
2022/11/06 06:03:43;;;;;;;;;;;;;;;;;;7372518;19;1777;-60
2022/11/06 06:06:11;;;;;;;;;;;;;;;;;;7369809;19;1819;-58
2022/11/06 06:08:39;;;;;;;;;;;;;;;;;;7367527;19;803;-58
2022/11/06 06:11:07;;;;;;;;;;;;;;;;;;7366167;19;1278;-60
2022/11/06 06:13:35;;;;;;;;;;;;;;;;;;7369057;19;807;-60
2022/11/06 06:16:04;;;;;;;;;;;;;;;;;;7367474;19;1840;-60
2022/11/06 06:18:32;;;;;;;;;;;;;;;;;;7367720;19;854;-59
2022/11/06 06:21:00;;;;;;;;;;;;;;;;;;7367320;19;1590;-59
2022/11/06 06:23:28;;;;;;;;;;;;;;;;;;7368467;19;827;-60
2022/11/06 06:25:56;;;;;;;;;;;;;;;;;;7369429;19;776;-59
2022/11/06 06:28:24;;;;;;;;;;;;;;;;;;7367972;19;811;-60
2022/11/06 06:30:53;;;;;;;;;;;;;;;;;;7370258;19;1829;-58
2022/11/06 06:33:21;;;;;;;;;;;;;;;;;;7368436;19;799;-61
2022/11/06 06:35:49;;;;;;;;;;;;;;;;;;7367942;19;1854;-59
2022/11/06 06:38:17;;;;;;;;;;;;;;;;;;7368296;19;801;-61
2022/11/06 06:40:45;;;;;;;;;;;;;;;;;;7366351;19;1353;-59
2022/11/06 06:43:13;;;;;;;;;;;;;;;;;;7368767;19;800;-54
2022/11/06 06:45:42;;;;;;;;;;;;;;;;;;7368253;19;776;-58
2022/11/06 06:48:10;;;;;;;;;;;;;;;;;;7367429;19;772;-60
2022/11/06 06:50:38;;;;;;;;;;;;;;;;;;7365891;19;1370;-60
2022/11/06 06:53:07;;;;;;;;;;;;;;;;;;7365809;19;835;-60
2022/11/06 06:55:35;;;;;;;;;;;;;;;;;;7366162;19;1861;-54
2022/11/06 06:58:03;;;;;;;;;;;;;;;;;;7366584;19;785;-59
2022/11/06 07:00:31;;;;;;;;;;;;;;;;;;7366235;19;1282;-60
2022/11/06 07:02:59;;;;;;;;;;;;;;;;;;7367298;19;799;-59
2022/11/06 07:05:27;;;;;;;;;;;;;;;;;;7367618;19;867;-58
2022/11/06 07:07:55;;;;;;;;;;;;;;;;;;7366670;19;805;-59
2022/11/06 07:10:23;;;;;;;;;;;;;;;;;;7366877;19;1289;-60
2022/11/06 07:12:52;;;;;;;;;;;;;;;;;;7367537;19;879;-61
2022/11/06 07:15:20;;;;;;;;;;;;;;;;;;7368145;19;1845;-60
2022/11/06 07:17:48;;;;;;;;;;;;;;;;;;7368234;19;1674;-61
2022/11/06 07:20:16;;;;;;;;;;;;;;;;;;7365564;19;1321;-60
2022/11/06 07:22:44;;;;;;;;;;;;;;;;;;7367472;19;799;-61
2022/11/06 07:25:12;;;;;;;;;;;;;;;;;;7367519;19;721;-60
2022/11/06 07:27:40;;;;;;;;;;;;;;;;;;7371937;19;1517;-61
2022/11/06 07:30:09;;;;;;;;;;;;;;;;;;7366729;19;1825;-61
2022/11/06 07:32:37;;;;;;;;;;;;;;;;;;7366972;19;1799;-61
2022/11/06 07:35:05;;;;;;;;;;;;;;;;;;7366834;19;851;-60
2022/11/06 07:37:33;;;;;;;;;;;;;;;;;;7363576;19;1850;-57
2022/11/06 07:40:01;;;;;;;;;;;;;;;;;;7367426;19;1853;-57
2022/11/06 07:42:30;;;;;;;;;;;;;;;;;;7367027;19;822;-60
2022/11/06 07:45:03;;;;;;;;;;;;;;;;;;7366103;19;846;-61
2022/11/06 07:47:31;;;;;;;;;;;;;;;;;;7366683;19;804;-58
2022/11/06 07:49:59;;;;;;;;;;;;;;;;;;7363687;19;1247;-57
2022/11/06 07:52:27;;;;;;;;;;;;;;;;;;7369143;19;2136;-58
2022/11/06 07:54:55;;;;;;;;;;;;;;;;;;7366630;19;781;-57
2022/11/06 07:57:23;;;;;;;;;;;;;;;;;;7363553;19;1853;-56
2022/11/06 07:59:52;;;;;;;;;;;;;;;;;;7364210;19;1317;-59
2022/11/06 08:02:20;;;;;;;;;;;;;;;;;;7365776;19;780;-60
2022/11/06 08:04:48;;;;;;;;;;;;;;;;;;7368152;19;2053;-58
2022/11/06 08:07:16;;;;;;;;;;;;;;;;;;7368391;19;809;-61
2022/11/06 08:09:44;;;;;;;;;;;;;;;;;;7370950;19;1278;-60
2022/11/06 08:12:13;;;;;;;;;;;;;;;;;;7376420;19;1735;-61
2022/11/06 08:14:41;;;;;;;;;;;;;;;;;;7372217;19;787;-56
2022/11/06 08:17:09;;;;;;;;;;;;;;;;;;7370459;19;1856;-59
2022/11/06 08:19:37;;;;;;;;;;;;;;;;;;7371104;19;1288;-59
2022/11/06 08:22:05;;;;;;;;;;;;;;;;;;7372879;19;1786;-60
2022/11/06 08:24:33;;;;;;;;;;;;;;;;;;7370306;19;819;-62
2022/11/06 08:27:02;;;;;;;;;;;;;;;;;;7375295;19;1664;-63
2022/11/06 08:29:30;;;;;;;;;;;;;;;;;;7370863;19;1282;-62
2022/11/06 08:31:58;;;;;;;;;;;;;;;;;;7372239;19;1812;-63
2022/11/06 08:34:26;;;;;;;;;;;;;;;;;;7375963;19;872;-60
2022/11/06 08:36:54;;;;;;;;;;;;;;;;;;7370124;19;1857;-60
2022/11/06 08:39:22;;;;;;;;;;;;;;;;;;7370923;19;1828;-61
2022/11/06 08:41:51;;;;;;;;;;;;;;;;;;7374073;19;1562;-55
2022/11/06 08:44:19;;;;;;;;;;;;;;;;;;7375443;19;1753;-57
2022/11/06 08:46:47;;;;;;;;;;;;;;;;;;7374261;19;2069;-61
2022/11/06 08:49:15;;;;;;;;;;;;;;;;;;7372467;19;2045;-60
2022/11/06 08:51:43;;;;;;;;;;;;;;;;;;7375193;19;1749;-57
2022/11/06 08:54:11;;;;;;;;;;;;;;;;;;7371291;19;804;-59
2022/11/06 08:56:39;;;;;;;;;;;;;;;;;;7371030;19;1845;-58
2022/11/06 08:59:08;;;;;;;;;;;;;;;;;;7374366;19;1884;-58
2022/11/06 09:01:36;;;;;;;;;;;;;;;;;;7372452;19;1836;-61
2022/11/06 09:04:04;;;;;;;;;;;;;;;;;;7371393;19;901;-57
2022/11/06 09:06:32;;;;;;;;;;;;;;;;;;7372295;19;1830;-61
2022/11/06 09:09:01;;;;;;;;;;;;;;;;;;7374636;19;1671;-61
2022/11/06 09:11:29;;;;;;;;;;;;;;;;;;7368924;19;1237;-60
2022/11/06 09:13:57;;;;;;;;;;;;;;;;;;7369347;19;807;-61
2022/11/06 09:16:25;;;;;;;;;;;;;;;;;;7368286;19;1839;-60
2022/11/06 09:18:53;;;;;;;;;;;;;;;;;;7369054;19;1844;-61
2022/11/06 09:21:22;;;;;;;;;;;;;;;;;;7368102;19;1278;-61
2022/11/06 09:23:50;;;;;;;;;;;;;;;;;;7370298;19;792;-58
2022/11/06 09:26:18;;;;;;;;;;;;;;;;;;7370811;19;811;-62
2022/11/06 09:28:46;;;;;;;;;;;;;;;;;;7370038;19;884;-60
2022/11/06 09:31:14;;;;;;;;;;;;;;;;;;7368701;19;1325;-56
2022/11/06 09:33:42;;;;;;;;;;;;;;;;;;7370668;19;866;-61
2022/11/06 09:36:10;;;;;;;;;;;;;;;;;;7369737;19;1846;-61
2022/11/06 09:38:38;;;;;;;;;;;;;;;;;;7369589;19;843;-59
2022/11/06 09:41:07;;;;;;;;;;;;;;;;;;7367731;19;1340;-58
2022/11/06 09:43:35;;;;;;;;;;;;;;;;;;7369653;19;744;-57
2022/11/06 09:46:03;;;;;;;;;;;;;;;;;;7370100;19;806;-59
2022/11/06 09:48:31;;;;;;;;;;;;;;;;;;7367774;19;872;-58
2022/11/06 09:50:59;;;;;;;;;;;;;;;;;;7368019;19;1756;-57
2022/11/06 09:53:28;;;;;;;;;;;;;;;;;;7367730;19;802;-60
2022/11/06 09:55:57;;;;;;;;;;;;;;;;;;7372114;19;1572;-57
2022/11/06 09:58:25;;;;;;;;;;;;;;;;;;7366434;19;1850;-61
2022/11/06 10:00:53;;;;;;;;;;;;;;;;;;7370170;19;1213;-61
2022/11/06 10:03:21;;;;;;;;;;;;;;;;;;7372154;19;921;-57
2022/11/06 10:05:49;;;;;;;;;;;;;;;;;;7369966;19;845;-59
2022/11/06 10:08:17;;;;;;;;;;;;;;;;;;7370262;19;1758;-62
2022/11/06 10:10:46;;;;;;;;;;;;;;;;;;7369255;19;1457;-62
2022/11/06 10:13:14;;;;;;;;;;;;;;;;;;7372164;19;1643;-61
2022/11/06 10:15:42;;;;;;;;;;;;;;;;;;7368288;19;1168;-61
2022/11/06 10:18:10;;;;;;;;;;;;;;;;;;7364748;19;1842;-59
2022/11/06 10:20:38;;;;;;;;;;;;;;;;;;7368092;19;1277;-59
2022/11/06 10:23:06;;;;;;;;;;;;;;;;;;7371008;19;905;-58
2022/11/06 10:25:35;;;;;;;;;;;;;;;;;;7371352;19;850;-58
2022/11/06 10:28:03;;;;;;;;;;;;;;;;;;7369691;19;943;-57
2022/11/06 10:30:31;;;;;;;;;;;;;;;;;;7366342;19;1366;-58
2022/11/06 10:32:59;;;;;;;;;;;;;;;;;;7370437;19;784;-59
2022/11/06 10:35:27;;;;;;;;;;;;;;;;;;7370597;19;873;-63
2022/11/06 10:37:56;;;;;;;;;;;;;;;;;;7368294;19;1853;-61
2022/11/06 10:40:24;;;;;;;;;;;;;;;;;;7367905;19;1360;-61
2022/11/06 10:42:52;;;;;;;;;;;;;;;;;;7368960;19;703;-61
2022/11/06 10:45:20;;;;;;;;;;;;;;;;;;7368778;19;811;-61
2022/11/06 10:47:48;;;;;;;;;;;;;;;;;;7367464;19;815;-59
2022/11/06 10:50:16;;;;;;;;;;;;;;;;;;7367125;19;1302;-61
2022/11/06 10:52:45;;;;;;;;;;;;;;;;;;7368644;19;711;-60
2022/11/06 10:55:13;;;;;;;;;;;;;;;;;;7368299;19;826;-56
2022/11/06 10:57:41;;;;;;;;;;;;;;;;;;7365558;19;1849;-61
2022/11/06 11:00:09;;;;;;;;;;;;;;;;;;7367362;19;1333;-58
2022/11/06 11:02:37;;;;;;;;;;;;;;;;;;7367706;19;869;-60
2022/11/06 11:05:05;;;;;;;;;;;;;;;;;;7368813;19;820;-61
2022/11/06 11:07:33;;;;;;;;;;;;;;;;;;7367889;19;883;-55
2022/11/06 11:10:01;;;;;;;;;;;;;;;;;;7366504;19;1333;-57
2022/11/06 11:12:30;;;;;;;;;;;;;;;;;;7367564;19;788;-58
2022/11/06 11:14:58;;;;;;;;;;;;;;;;;;7367397;19;752;-59
2022/11/06 11:17:26;;;;;;;;;;;;;;;;;;7365890;19;1861;-59
2022/11/06 11:19:54;;;;;;;;;;;;;;;;;;7366158;19;1243;-54
2022/11/06 11:22:23;;;;;;;;;;;;;;;;;;7367048;19;845;-56
2022/11/06 11:24:51;;;;;;;;;;;;;;;;;;7367782;19;1011;-60
2022/11/06 11:27:19;;;;;;;;;;;;;;;;;;7367342;19;780;-63
2022/11/06 11:29:48;;;;;;;;;;;;;;;;;;7365236;19;1310;-61
2022/11/06 11:32:16;;;;;;;;;;;;;;;;;;7367228;19;927;-59
2022/11/06 11:34:45;;;;;;;;;;;;;;;;;;7366822;19;838;-59
2022/11/06 11:37:13;;;;;;;;;;;;;;;;;;7366433;19;1816;-59
2022/11/06 11:39:41;;;;;;;;;;;;;;;;;;7366337;19;1277;-61
2022/11/06 11:42:09;;;;;;;;;;;;;;;;;;7365816;19;842;-60
2022/11/06 11:44:37;;;;;;;;;;;;;;;;;;7367170;19;804;-60
2022/11/06 11:47:05;;;;;;;;;;;;;;;;;;7366983;19;850;-61
2022/11/06 11:49:33;;;;;;;;;;;;;;;;;;7365941;19;1254;-60
2022/11/06 11:52:02;;;;;;;;;;;;;;;;;;7367171;19;818;-59
2022/11/06 11:54:32;;;;;;;;;;;;;;;;;;7364230;19;1122;-61
2022/11/06 11:57:01;;;;;;;;;;;;;;;;;;7364926;19;1895;-58
2022/11/06 11:59:29;;;;;;;;;;;;;;;;;;7366122;19;1278;-61
2022/11/06 12:01:57;;;;;;;;;;;;;;;;;;7366630;19;786;-57
2022/11/06 12:04:25;;;;;;;;;;;;;;;;;;7366605;19;787;-59
2022/11/06 12:06:53;;;;;;;;;;;;;;;;;;7367186;19;811;-58
2022/11/06 12:09:21;;;;;;;;;;;;;;;;;;7365140;19;1364;-59
2022/11/06 12:11:49;;;;;;;;;;;;;;;;;;7364782;19;1134;-59
2022/11/06 12:14:17;;;;;;;;;;;;;;;;;;7366023;19;809;-58
2022/11/06 12:16:46;;;;;;;;;;;;;;;;;;7363994;19;1848;-57
2022/11/06 12:19:14;;;;;;;;;;;;;;;;;;7365003;19;1297;-61
2022/11/06 12:21:42;;;;;;;;;;;;;;;;;;7365999;19;788;-59
2022/11/06 12:24:10;;;;;;;;;;;;;;;;;;7366263;19;783;-60
2022/11/06 12:26:38;;;;;;;;;;;;;;;;;;7365816;19;849;-60
2022/11/06 12:29:07;;;;;;;;;;;;;;;;;;7365373;19;771;-60
2022/11/06 12:31:35;;;;;;;;;;;;;;;;;;7367980;19;862;-61
2022/11/06 12:34:03;;;;;;;;;;;;;;;;;;7369375;19;842;-61
2022/11/06 12:36:35;;;;;;;;;;;;;;;;;;7369704;19;775;-61
2022/11/06 12:39:04;;;;;;;;;;;;;;;;;;7365726;19;1827;-60
2022/11/06 12:41:33;;;;;;;;;;;;;;;;;;7368987;19;983;-61
2022/11/06 12:44:01;;;;;;;;;;;;;;;;;;7368865;19;898;-61
2022/11/06 12:46:29;;;;;;;;;;;;;;;;;;7368831;19;865;-62
2022/11/06 12:48:57;;;;;;;;;;;;;;;;;;7368895;19;878;-61
2022/11/06 12:51:25;;;;;;;;;;;;;;;;;;7367341;19;1278;-59
2022/11/06 12:53:53;;;;;;;;;;;;;;;;;;7369274;19;821;-57
2022/11/06 12:56:21;;;;;;;;;;;;;;;;;;7375054;19;768;-61
2022/11/06 12:58:50;;;;;;;;;;;;;;;;;;7369588;19;1822;-59
2022/11/06 13:01:18;;;;;;;;;;;;;;;;;;7368798;19;1331;-60
2022/11/06 13:03:47;;;;;;;;;;;;;;;;;;7372086;19;774;-57
2022/11/06 13:06:15;;;;;;;;;;;;;;;;;;7371719;19;896;-58
2022/11/06 13:08:43;;;;;;;;;;;;;;;;;;7370767;19;876;-55
2022/11/06 13:11:11;;;;;;;;;;;;;;;;;;7368996;19;1270;-56
2022/11/06 13:13:40;;;;;;;;;;;;;;;;;;7371172;19;741;-63
2022/11/06 13:16:08;;;;;;;;;;;;;;;;;;7371200;19;875;-60
2022/11/06 13:18:38;;;;;;;;;;;;;;;;;;7369171;19;1845;-57
2022/11/06 13:21:06;;;;;;;;;;;;;;;;;;7369341;19;1337;-59
2022/11/06 13:23:34;;;;;;;;;;;;;;;;;;7370804;19;812;-56
2022/11/06 13:26:02;;;;;;;;;;;;;;;;;;7370984;19;838;-57
2022/11/06 13:28:32;;;;;;;;;;;;;;;;;;7369731;19;846;-60
2022/11/06 13:31:00;;;;;;;;;;;;;;;;;;7368843;19;1907;-58
2022/11/06 13:33:28;;;;;;;;;;;;;;;;;;7371466;19;849;-63
2022/11/06 13:35:56;;;;;;;;;;;;;;;;;;7371019;19;831;-60
2022/11/06 13:38:24;;;;;;;;;;;;;;;;;;7368070;19;1858;-61
2022/11/06 13:40:53;;;;;;;;;;;;;;;;;;7367869;19;1344;-60
2022/11/06 13:43:21;;;;;;;;;;;;;;;;;;7370703;19;802;-57
2022/11/06 13:45:49;;;;;;;;;;;;;;;;;;7370495;19;842;-59
2022/11/06 13:48:17;;;;;;;;;;;;;;;;;;7369147;19;814;-58
2022/11/06 13:50:45;;;;;;;;;;;;;;;;;;7367832;19;1340;-56
2022/11/06 13:53:13;;;;;;;;;;;;;;;;;;7369975;19;878;-59
2022/11/06 13:55:42;;;;;;;;;;;;;;;;;;7369376;19;966;-57
2022/11/06 13:58:10;;;;;;;;;;;;;;;;;;7368927;19;1846;-59
2022/11/06 14:00:38;;;;;;;;;;;;;;;;;;7369133;19;1279;-54
2022/11/06 14:03:06;;;;;;;;;;;;;;;;;;7370569;19;803;-54
2022/11/06 14:05:34;;;;;;;;;;;;;;;;;;7368917;19;855;-57
2022/11/06 14:08:02;;;;;;;;;;;;;;;;;;7368100;19;1236;-59
2022/11/06 14:10:32;;;;;;;;;;;;;;;;;;7367697;19;1341;-60
2022/11/06 14:13:01;;;;;;;;;;;;;;;;;;7370060;19;706;-58
2022/11/06 14:15:29;;;;;;;;;;;;;;;;;;7368637;19;844;-58
2022/11/06 14:17:57;;;;;;;;;;;;;;;;;;7367526;19;1857;-56
2022/11/06 14:20:25;;;;;;;;;;;;;;;;;;7367612;19;1277;-57
2022/11/06 14:22:53;;;;;;;;;;;;;;;;;;7370037;19;714;-56
2022/11/06 14:25:21;;;;;;;;;;;;;;;;;;7369377;19;864;-58
2022/11/06 14:27:49;;;;;;;;;;;;;;;;;;7367761;19;889;-57
2022/11/06 14:30:18;;;;;;;;;;;;;;;;;;7367586;19;1274;-60
2022/11/06 14:32:46;;;;;;;;;;;;;;;;;;7368785;19;855;-62
2022/11/06 14:35:14;;;;;;;;;;;;;;;;;;7367979;19;934;-60
2022/11/06 14:37:42;;;;;;;;;;;;;;;;;;7368801;19;1854;-60
2022/11/06 14:40:10;;;;;;;;;;;;;;;;;;7367534;19;1276;-58
2022/11/06 14:42:38;;;;;;;;;;;;;;;;;;7368619;19;818;-59
2022/11/06 14:45:07;;;;;;;;;;;;;;;;;;7368074;19;838;-60
2022/11/06 14:47:35;;;;;;;;;;;;;;;;;;7367272;19;861;-60
2022/11/06 14:50:03;;;;;;;;;;;;;;;;;;7366071;19;1289;-57
2022/11/06 14:52:31;;;;;;;;;;;;;;;;;;7367316;19;774;-57
2022/11/06 14:54:59;;;;;;;;;;;;;;;;;;7368829;19;786;-58
2022/11/06 14:57:27;;;;;;;;;;;;;;;;;;7368321;19;804;-60
2022/11/06 14:59:55;;;;;;;;;;;;;;;;;;7363569;19;1360;-61
2022/11/06 15:02:24;;;;;;;;;;;;;;;;;;7368710;19;871;-59
2022/11/06 15:04:52;;;;;;;;;;;;;;;;;;7368231;19;784;-59
2022/11/06 15:07:20;;;;;;;;;;;;;;;;;;7366960;19;889;-58
2022/11/06 15:09:49;;;;;;;;;;;;;;;;;;7366503;19;1293;-57
2022/11/06 15:12:17;;;;;;;;;;;;;;;;;;7368253;19;819;-59
2022/11/06 15:14:45;;;;;;;;;;;;;;;;;;7367634;19;861;-57
2022/11/06 15:17:13;;;;;;;;;;;;;;;;;;7365814;19;858;-55
2022/11/06 15:19:41;;;;;;;;;;;;;;;;;;7363295;19;1849;-55
2022/11/06 15:22:09;;;;;;;;;;;;;;;;;;7366563;19;790;-55
2022/11/06 15:24:37;;;;;;;;;;;;;;;;;;7367937;19;865;-55
2022/11/06 15:27:06;;;;;;;;;;;;;;;;;;7366229;19;900;-54
2022/11/06 15:29:34;;;;;;;;;;;;;;;;;;7366609;19;1424;-56
2022/11/06 15:32:02;;;;;;;;;;;;;;;;;;7366558;19;844;-51
2022/11/06 15:34:30;;;;;;;;;;;;;;;;;;7366835;19;859;-57
2022/11/06 15:36:58;;;;;;;;;;;;;;;;;;7367312;19;766;-54
2022/11/06 15:39:26;;;;;;;;;;;;;;;;;;7363636;19;1837;-55
2022/11/06 15:41:55;;;;;;;;;;;;;;;;;;7366856;19;761;-57
2022/11/06 15:44:23;;;;;;;;;;;;;;;;;;7366121;19;881;-56
2022/11/06 15:46:51;;;;;;;;;;;;;;;;;;7366984;19;813;-54
2022/11/06 15:49:19;;;;;;;;;;;;;;;;;;7365840;19;1242;-55
2022/11/06 15:51:47;;;;;;;;;;;;;;;;;;7366803;19;807;-57
2022/11/06 15:54:15;;;;;;;;;;;;;;;;;;7365819;19;806;-52
2022/11/06 15:56:43;;;;;;;;;;;;;;;;;;7365924;19;752;-57
2022/11/06 15:59:12;;;;;;;;;;;;;;;;;;7363939;19;1853;-52
2022/11/06 16:01:40;;;;;;;;;;;;;;;;;;7366016;19;850;-54
2022/11/06 16:04:08;;;;;;;;;;;;;;;;;;7364125;19;795;-55
2022/11/06 16:06:36;;;;;;;;;;;;;;;;;;7365200;19;850;-53
2022/11/06 16:09:04;;;;;;;;;;;;;;;;;;7365127;19;758;-55
2022/11/06 16:11:32;;;;;;;;;;;;;;;;;;7362574;19;1356;-57
2022/11/06 16:14:00;;;;;;;;;;;;;;;;;;7365652;19;819;-57
2022/11/06 16:16:29;;;;;;;;;;;;;;;;;;7365222;19;874;-59
2022/11/06 16:18:57;;;;;;;;;;;;;;;;;;7362831;19;1837;-57
2022/11/06 16:21:25;;;;;;;;;;;;;;;;;;7361934;19;1274;-57
2022/11/06 16:23:53;;;;;;;;;;;;;;;;;;7363982;19;774;-55
2022/11/06 16:26:21;;;;;;;;;;;;;;;;;;7364962;19;850;-58
2022/11/06 16:28:49;;;;;;;;;;;;;;;;;;7367671;19;786;-53
2022/11/06 16:31:17;;;;;;;;;;;;;;;;;;7370067;19;1270;-53
2022/11/06 16:33:45;;;;;;;;;;;;;;;;;;7371381;19;862;-55
2022/11/06 16:36:14;;;;;;;;;;;;;;;;;;7369384;19;1015;-56
2022/11/06 16:38:42;;;;;;;;;;;;;;;;;;7370413;19;1853;-52
2022/11/06 16:41:10;;;;;;;;;;;;;;;;;;7369698;19;1293;-55
2022/11/06 16:43:38;;;;;;;;;;;;;;;;;;7371748;19;786;-57
2022/11/06 16:46:07;;;;;;;;;;;;;;;;;;7371236;19;769;-51
2022/11/06 16:48:35;;;;;;;;;;;;;;;;;;7370860;19;792;-55
2022/11/06 16:51:03;;;;;;;;;;;;;;;;;;7370024;19;1313;-60
2022/11/06 16:53:32;;;;;;;;;;;;;;;;;;7371582;19;866;-57
2022/11/06 16:56:00;;;;;;;;;;;;;;;;;;7371941;19;840;-58
2022/11/06 16:58:28;;;;;;;;;;;;;;;;;;7370931;19;1870;-56
2022/11/06 17:00:57;;;;;;;;;;;;;;;;;;7369334;19;1351;-56
2022/11/06 17:03:25;;;;;;;;;;;;;;;;;;7372132;19;884;-52
2022/11/06 17:05:53;;;;;;;;;;;;;;;;;;7371358;19;998;-54
2022/11/06 17:08:22;;;;;;;;;;;;;;;;;;7370869;19;834;-54
2022/11/06 17:10:50;;;;;;;;;;;;;;;;;;7369569;19;1329;-57
2022/11/06 17:13:18;;;;;;;;;;;;;;;;;;7370413;19;864;-52
2022/11/06 17:15:46;;;;;;;;;;;;;;;;;;7370399;19;868;-53
2022/11/06 17:18:14;;;;;;;;;;;;;;;;;;7370534;19;1830;-58
2022/11/06 17:20:42;;;;;;;;;;;;;;;;;;7369782;19;1289;-56
2022/11/06 17:23:11;;;;;;;;;;;;;;;;;;7370635;19;825;-56
2022/11/06 17:25:39;;;;;;;;;;;;;;;;;;7372074;19;836;-56
2022/11/06 17:28:07;;;;;;;;;;;;;;;;;;7371592;19;1022;-58
2022/11/06 17:30:35;;;;;;;;;;;;;;;;;;7369588;19;1251;-54